sensor_id;sensor_type;location;lat;lon;timestamp;P1;durP1;ratioP1;P2;durP2;ratioP2
67248;SDS011;54162;54.300;18.592;2022-08-01T00:01:14;9.53;;;5.43;;
67248;SDS011;54162;54.300;18.592;2022-08-01T00:03:39;10.00;;;5.88;;
67248;SDS011;54162;54.300;18.592;2022-08-01T00:06:05;12.20;;;5.50;;
67248;SDS011;54162;54.300;18.592;2022-08-01T00:08:31;12.50;;;5.70;;
67248;SDS011;54162;54.300;18.592;2022-08-01T00:10:56;12.47;;;5.87;;
67248;SDS011;54162;54.300;18.592;2022-08-01T00:13:22;9.37;;;5.40;;
67248;SDS011;54162;54.300;18.592;2022-08-01T00:15:47;12.80;;;6.13;;
67248;SDS011;54162;54.300;18.592;2022-08-01T00:18:13;10.50;;;5.80;;
67248;SDS011;54162;54.300;18.592;2022-08-01T00:20:38;10.67;;;5.90;;
67248;SDS011;54162;54.300;18.592;2022-08-01T00:23:04;10.93;;;5.53;;
67248;SDS011;54162;54.300;18.592;2022-08-01T00:25:30;13.35;;;6.25;;
67248;SDS011;54162;54.300;18.592;2022-08-01T00:27:55;12.82;;;6.35;;
67248;SDS011;54162;54.300;18.592;2022-08-01T00:30:21;12.37;;;6.53;;
67248;SDS011;54162;54.300;18.592;2022-08-01T00:32:46;13.30;;;6.70;;
67248;SDS011;54162;54.300;18.592;2022-08-01T00:35:12;13.75;;;6.60;;
67248;SDS011;54162;54.300;18.592;2022-08-01T00:37:38;12.83;;;6.80;;
67248;SDS011;54162;54.300;18.592;2022-08-01T00:40:04;13.07;;;6.80;;
67248;SDS011;54162;54.300;18.592;2022-08-01T00:42:30;13.02;;;7.20;;
67248;SDS011;54162;54.300;18.592;2022-08-01T00:44:56;13.40;;;7.27;;
67248;SDS011;54162;54.300;18.592;2022-08-01T00:47:21;11.97;;;6.60;;
67248;SDS011;54162;54.300;18.592;2022-08-01T00:49:47;12.63;;;6.70;;
67248;SDS011;54162;54.300;18.592;2022-08-01T00:52:12;12.60;;;6.70;;
67248;SDS011;54162;54.300;18.592;2022-08-01T00:54:38;12.87;;;6.17;;
67248;SDS011;54162;54.300;18.592;2022-08-01T00:57:04;11.93;;;6.18;;
67248;SDS011;54162;54.300;18.592;2022-08-01T00:59:29;12.57;;;6.70;;
67248;SDS011;54162;54.300;18.592;2022-08-01T01:01:55;10.20;;;6.32;;
67248;SDS011;54162;54.300;18.592;2022-08-01T01:04:21;15.10;;;6.93;;
67248;SDS011;54162;54.300;18.592;2022-08-01T01:09:42;12.98;;;6.70;;
67248;SDS011;54162;54.300;18.592;2022-08-01T01:17:37;12.55;;;6.75;;
67248;SDS011;54162;54.300;18.592;2022-08-01T01:20:08;12.83;;;6.50;;
67248;SDS011;54162;54.300;18.592;2022-08-01T01:30:49;11.55;;;6.57;;
67248;SDS011;54162;54.300;18.592;2022-08-01T01:33:16;11.87;;;6.90;;
67248;SDS011;54162;54.300;18.592;2022-08-01T01:35:49;11.05;;;6.72;;
67248;SDS011;54162;54.300;18.592;2022-08-01T01:38:20;15.35;;;7.00;;
67248;SDS011;54162;54.300;18.592;2022-08-01T01:40:47;13.63;;;6.88;;
67248;SDS011;54162;54.300;18.592;2022-08-01T01:43:15;13.70;;;7.13;;
67248;SDS011;54162;54.300;18.592;2022-08-01T01:45:42;14.57;;;7.07;;
67248;SDS011;54162;54.300;18.592;2022-08-01T01:48:10;12.18;;;6.68;;
67248;SDS011;54162;54.300;18.592;2022-08-01T01:50:39;14.20;;;6.57;;
67248;SDS011;54162;54.300;18.592;2022-08-01T01:53:06;12.77;;;6.97;;
67248;SDS011;54162;54.300;18.592;2022-08-01T01:55:35;13.00;;;6.70;;
67248;SDS011;54162;54.300;18.592;2022-08-01T01:58:02;13.57;;;6.73;;
67248;SDS011;54162;54.300;18.592;2022-08-01T02:00:29;12.38;;;6.50;;
67248;SDS011;54162;54.300;18.592;2022-08-01T02:02:56;11.45;;;6.38;;
67248;SDS011;54162;54.300;18.592;2022-08-01T02:05:22;10.75;;;6.03;;
67248;SDS011;54162;54.300;18.592;2022-08-01T02:07:50;12.30;;;6.43;;
67248;SDS011;54162;54.300;18.592;2022-08-01T02:10:17;11.57;;;5.83;;
67248;SDS011;54162;54.300;18.592;2022-08-01T02:12:43;10.90;;;5.90;;
67248;SDS011;54162;54.300;18.592;2022-08-01T02:15:11;11.60;;;6.57;;
67248;SDS011;54162;54.300;18.592;2022-08-01T02:17:41;13.02;;;6.40;;
67248;SDS011;54162;54.300;18.592;2022-08-01T02:20:12;13.98;;;6.65;;
67248;SDS011;54162;54.300;18.592;2022-08-01T02:22:55;11.63;;;6.00;;
67248;SDS011;54162;54.300;18.592;2022-08-01T02:26:00;15.82;;;5.90;;
67248;SDS011;54162;54.300;18.592;2022-08-01T02:28:25;12.23;;;5.80;;
67248;SDS011;54162;54.300;18.592;2022-08-01T02:31:04;9.30;;;5.70;;
67248;SDS011;54162;54.300;18.592;2022-08-01T02:33:41;11.40;;;5.88;;
67248;SDS011;54162;54.300;18.592;2022-08-01T02:36:11;12.63;;;5.90;;
67248;SDS011;54162;54.300;18.592;2022-08-01T02:38:40;10.63;;;6.10;;
67248;SDS011;54162;54.300;18.592;2022-08-01T02:41:08;12.93;;;6.15;;
67248;SDS011;54162;54.300;18.592;2022-08-01T02:43:38;9.45;;;5.25;;
67248;SDS011;54162;54.300;18.592;2022-08-01T02:46:09;10.60;;;5.45;;
67248;SDS011;54162;54.300;18.592;2022-08-01T02:48:41;9.83;;;5.50;;
67248;SDS011;54162;54.300;18.592;2022-08-01T02:51:08;11.63;;;5.40;;
67248;SDS011;54162;54.300;18.592;2022-08-01T02:53:36;11.77;;;6.35;;
67248;SDS011;54162;54.300;18.592;2022-08-01T02:56:06;11.68;;;5.78;;
67248;SDS011;54162;54.300;18.592;2022-08-01T02:58:33;14.18;;;6.28;;
67248;SDS011;54162;54.300;18.592;2022-08-01T03:01:01;9.23;;;5.57;;
67248;SDS011;54162;54.300;18.592;2022-08-01T03:03:29;11.48;;;6.10;;
67248;SDS011;54162;54.300;18.592;2022-08-01T03:05:55;12.15;;;6.03;;
67248;SDS011;54162;54.300;18.592;2022-08-01T03:08:22;8.75;;;5.88;;
67248;SDS011;54162;54.300;18.592;2022-08-01T03:10:48;10.57;;;6.40;;
67248;SDS011;54162;54.300;18.592;2022-08-01T03:13:17;9.63;;;5.43;;
67248;SDS011;54162;54.300;18.592;2022-08-01T03:15:44;10.82;;;5.50;;
67248;SDS011;54162;54.300;18.592;2022-08-01T03:18:12;10.18;;;5.60;;
67248;SDS011;54162;54.300;18.592;2022-08-01T03:20:39;8.80;;;5.07;;
67248;SDS011;54162;54.300;18.592;2022-08-01T03:23:08;10.18;;;5.50;;
67248;SDS011;54162;54.300;18.592;2022-08-01T03:25:38;9.33;;;4.77;;
67248;SDS011;54162;54.300;18.592;2022-08-01T03:28:05;8.00;;;4.70;;
67248;SDS011;54162;54.300;18.592;2022-08-01T03:30:32;7.18;;;4.45;;
67248;SDS011;54162;54.300;18.592;2022-08-01T03:33:00;7.55;;;4.03;;
67248;SDS011;54162;54.300;18.592;2022-08-01T03:35:28;8.00;;;3.80;;
67248;SDS011;54162;54.300;18.592;2022-08-01T03:38:01;10.20;;;4.07;;
67248;SDS011;54162;54.300;18.592;2022-08-01T03:40:30;7.45;;;3.50;;
67248;SDS011;54162;54.300;18.592;2022-08-01T03:43:02;7.05;;;3.85;;
67248;SDS011;54162;54.300;18.592;2022-08-01T03:45:35;6.80;;;3.33;;
67248;SDS011;54162;54.300;18.592;2022-08-01T03:48:05;7.75;;;3.33;;
67248;SDS011;54162;54.300;18.592;2022-08-01T03:50:39;7.93;;;3.53;;
67248;SDS011;54162;54.300;18.592;2022-08-01T03:53:07;5.50;;;3.00;;
67248;SDS011;54162;54.300;18.592;2022-08-01T03:55:35;6.63;;;2.90;;
67248;SDS011;54162;54.300;18.592;2022-08-01T03:58:05;6.68;;;3.33;;
67248;SDS011;54162;54.300;18.592;2022-08-01T04:00:31;6.97;;;2.60;;
67248;SDS011;54162;54.300;18.592;2022-08-01T04:02:57;4.60;;;2.60;;
67248;SDS011;54162;54.300;18.592;2022-08-01T04:05:23;5.63;;;2.47;;
67248;SDS011;54162;54.300;18.592;2022-08-01T04:07:50;4.93;;;2.13;;
67248;SDS011;54162;54.300;18.592;2022-08-01T04:10:22;5.43;;;2.53;;
67248;SDS011;54162;54.300;18.592;2022-08-01T04:12:48;5.50;;;2.90;;
67248;SDS011;54162;54.300;18.592;2022-08-01T04:15:14;8.15;;;2.75;;
67248;SDS011;54162;54.300;18.592;2022-08-01T04:17:40;5.53;;;2.43;;
67248;SDS011;54162;54.300;18.592;2022-08-01T04:20:05;5.32;;;2.30;;
67248;SDS011;54162;54.300;18.592;2022-08-01T04:22:31;5.47;;;2.50;;
67248;SDS011;54162;54.300;18.592;2022-08-01T04:24:58;7.90;;;2.35;;
67248;SDS011;54162;54.300;18.592;2022-08-01T04:27:28;5.53;;;2.60;;
67248;SDS011;54162;54.300;18.592;2022-08-01T04:29:56;8.38;;;2.38;;
67248;SDS011;54162;54.300;18.592;2022-08-01T04:32:23;5.25;;;2.30;;
67248;SDS011;54162;54.300;18.592;2022-08-01T04:34:51;5.28;;;2.40;;
67248;SDS011;54162;54.300;18.592;2022-08-01T04:37:20;7.63;;;2.42;;
67248;SDS011;54162;54.300;18.592;2022-08-01T04:39:48;6.65;;;2.45;;
67248;SDS011;54162;54.300;18.592;2022-08-01T04:42:16;6.68;;;2.25;;
67248;SDS011;54162;54.300;18.592;2022-08-01T04:44:43;5.50;;;2.28;;
67248;SDS011;54162;54.300;18.592;2022-08-01T04:47:08;10.18;;;2.50;;
67248;SDS011;54162;54.300;18.592;2022-08-01T04:49:35;6.95;;;2.22;;
67248;SDS011;54162;54.300;18.592;2022-08-01T04:52:01;6.72;;;2.30;;
67248;SDS011;54162;54.300;18.592;2022-08-01T04:54:27;9.55;;;2.20;;
67248;SDS011;54162;54.300;18.592;2022-08-01T04:56:54;4.37;;;2.10;;
67248;SDS011;54162;54.300;18.592;2022-08-01T04:59:27;4.88;;;2.22;;
67248;SDS011;54162;54.300;18.592;2022-08-01T05:02:09;5.10;;;2.10;;
67248;SDS011;54162;54.300;18.592;2022-08-01T05:04:35;4.35;;;2.28;;
67248;SDS011;54162;54.300;18.592;2022-08-01T05:07:01;6.05;;;2.45;;
67248;SDS011;54162;54.300;18.592;2022-08-01T05:09:27;6.13;;;2.40;;
67248;SDS011;54162;54.300;18.592;2022-08-01T05:11:52;6.97;;;2.50;;
67248;SDS011;54162;54.300;18.592;2022-08-01T05:14:18;5.80;;;2.50;;
67248;SDS011;54162;54.300;18.592;2022-08-01T05:16:44;7.67;;;2.83;;
67248;SDS011;54162;54.300;18.592;2022-08-01T05:19:10;8.10;;;2.75;;
67248;SDS011;54162;54.300;18.592;2022-08-01T05:21:36;6.97;;;2.47;;
67248;SDS011;54162;54.300;18.592;2022-08-01T05:24:02;6.38;;;2.50;;
67248;SDS011;54162;54.300;18.592;2022-08-01T05:26:29;6.57;;;2.50;;
67248;SDS011;54162;54.300;18.592;2022-08-01T05:28:54;8.88;;;2.60;;
67248;SDS011;54162;54.300;18.592;2022-08-01T05:31:20;9.10;;;2.37;;
67248;SDS011;54162;54.300;18.592;2022-08-01T05:33:45;7.53;;;2.30;;
67248;SDS011;54162;54.300;18.592;2022-08-01T05:36:11;8.23;;;2.37;;
67248;SDS011;54162;54.300;18.592;2022-08-01T05:38:36;7.97;;;2.40;;
67248;SDS011;54162;54.300;18.592;2022-08-01T05:41:02;8.13;;;2.10;;
67248;SDS011;54162;54.300;18.592;2022-08-01T05:43:27;8.10;;;2.20;;
67248;SDS011;54162;54.300;18.592;2022-08-01T05:45:53;6.95;;;2.00;;
67248;SDS011;54162;54.300;18.592;2022-08-01T05:48:18;4.80;;;2.07;;
67248;SDS011;54162;54.300;18.592;2022-08-01T05:50:44;5.83;;;2.00;;
67248;SDS011;54162;54.300;18.592;2022-08-01T05:53:09;7.25;;;2.35;;
67248;SDS011;54162;54.300;18.592;2022-08-01T05:55:35;10.10;;;2.40;;
67248;SDS011;54162;54.300;18.592;2022-08-01T05:58:01;7.38;;;2.30;;
67248;SDS011;54162;54.300;18.592;2022-08-01T06:00:27;5.47;;;2.20;;
67248;SDS011;54162;54.300;18.592;2022-08-01T06:02:52;5.73;;;2.17;;
67248;SDS011;54162;54.300;18.592;2022-08-01T06:05:18;5.00;;;2.17;;
67248;SDS011;54162;54.300;18.592;2022-08-01T06:07:43;11.63;;;2.80;;
67248;SDS011;54162;54.300;18.592;2022-08-01T06:10:09;9.00;;;2.60;;
67248;SDS011;54162;54.300;18.592;2022-08-01T06:12:35;6.53;;;2.80;;
67248;SDS011;54162;54.300;18.592;2022-08-01T06:15:02;7.77;;;2.50;;
67248;SDS011;54162;54.300;18.592;2022-08-01T06:17:30;7.35;;;2.60;;
67248;SDS011;54162;54.300;18.592;2022-08-01T06:19:56;7.47;;;2.30;;
67248;SDS011;54162;54.300;18.592;2022-08-01T06:22:21;7.20;;;2.20;;
67248;SDS011;54162;54.300;18.592;2022-08-01T06:24:47;8.07;;;2.40;;
67248;SDS011;54162;54.300;18.592;2022-08-01T06:27:12;18.03;;;3.23;;
67248;SDS011;54162;54.300;18.592;2022-08-01T06:29:38;5.32;;;2.40;;
67248;SDS011;54162;54.300;18.592;2022-08-01T06:32:03;12.50;;;2.30;;
67248;SDS011;54162;54.300;18.592;2022-08-01T06:34:29;7.00;;;2.10;;
67248;SDS011;54162;54.300;18.592;2022-08-01T06:36:55;4.30;;;2.10;;
67248;SDS011;54162;54.300;18.592;2022-08-01T06:39:20;5.37;;;2.00;;
67248;SDS011;54162;54.300;18.592;2022-08-01T06:41:45;6.67;;;1.90;;
67248;SDS011;54162;54.300;18.592;2022-08-01T06:44:15;7.10;;;1.90;;
67248;SDS011;54162;54.300;18.592;2022-08-01T06:46:40;7.22;;;2.10;;
67248;SDS011;54162;54.300;18.592;2022-08-01T06:49:05;5.47;;;2.30;;
67248;SDS011;54162;54.300;18.592;2022-08-01T06:51:31;5.72;;;2.08;;
67248;SDS011;54162;54.300;18.592;2022-08-01T06:53:56;11.57;;;2.10;;
67248;SDS011;54162;54.300;18.592;2022-08-01T06:56:23;5.65;;;2.20;;
67248;SDS011;54162;54.300;18.592;2022-08-01T06:58:49;5.53;;;1.90;;
67248;SDS011;54162;54.300;18.592;2022-08-01T07:01:15;5.32;;;2.05;;
67248;SDS011;54162;54.300;18.592;2022-08-01T07:03:41;9.27;;;2.30;;
67248;SDS011;54162;54.300;18.592;2022-08-01T07:06:06;5.87;;;2.17;;
67248;SDS011;54162;54.300;18.592;2022-08-01T07:08:32;7.43;;;2.15;;
67248;SDS011;54162;54.300;18.592;2022-08-01T07:10:58;5.00;;;2.00;;
67248;SDS011;54162;54.300;18.592;2022-08-01T07:13:27;5.97;;;2.22;;
67248;SDS011;54162;54.300;18.592;2022-08-01T07:15:55;6.50;;;2.40;;
67248;SDS011;54162;54.300;18.592;2022-08-01T07:18:21;4.25;;;2.03;;
67248;SDS011;54162;54.300;18.592;2022-08-01T07:20:47;6.80;;;2.13;;
67248;SDS011;54162;54.300;18.592;2022-08-01T07:23:13;5.60;;;2.30;;
67248;SDS011;54162;54.300;18.592;2022-08-01T07:25:39;4.43;;;1.90;;
67248;SDS011;54162;54.300;18.592;2022-08-01T07:28:04;6.73;;;1.70;;
67248;SDS011;54162;54.300;18.592;2022-08-01T07:30:30;4.40;;;1.70;;
67248;SDS011;54162;54.300;18.592;2022-08-01T07:32:56;5.65;;;2.00;;
67248;SDS011;54162;54.300;18.592;2022-08-01T07:35:21;5.93;;;2.20;;
67248;SDS011;54162;54.300;18.592;2022-08-01T07:37:47;7.57;;;2.10;;
67248;SDS011;54162;54.300;18.592;2022-08-01T07:40:12;6.23;;;2.00;;
67248;SDS011;54162;54.300;18.592;2022-08-01T07:42:38;3.80;;;2.20;;
67248;SDS011;54162;54.300;18.592;2022-08-01T07:45:04;4.32;;;2.20;;
67248;SDS011;54162;54.300;18.592;2022-08-01T07:47:29;5.37;;;2.13;;
67248;SDS011;54162;54.300;18.592;2022-08-01T07:50:02;7.97;;;2.20;;
67248;SDS011;54162;54.300;18.592;2022-08-01T07:52:30;8.00;;;2.07;;
67248;SDS011;54162;54.300;18.592;2022-08-01T07:54:56;8.82;;;2.20;;
67248;SDS011;54162;54.300;18.592;2022-08-01T07:57:22;6.88;;;2.08;;
67248;SDS011;54162;54.300;18.592;2022-08-01T07:59:49;4.25;;;1.58;;
67248;SDS011;54162;54.300;18.592;2022-08-01T08:02:14;3.20;;;1.87;;
67248;SDS011;54162;54.300;18.592;2022-08-01T08:04:40;6.35;;;2.20;;
67248;SDS011;54162;54.300;18.592;2022-08-01T08:07:06;4.57;;;1.80;;
67248;SDS011;54162;54.300;18.592;2022-08-01T08:09:32;9.00;;;2.30;;
67248;SDS011;54162;54.300;18.592;2022-08-01T08:11:57;12.03;;;2.20;;
67248;SDS011;54162;54.300;18.592;2022-08-01T08:14:23;3.97;;;1.80;;
67248;SDS011;54162;54.300;18.592;2022-08-01T08:16:49;4.57;;;2.10;;
67248;SDS011;54162;54.300;18.592;2022-08-01T08:19:15;5.87;;;2.20;;
67248;SDS011;54162;54.300;18.592;2022-08-01T08:21:41;3.78;;;2.03;;
67248;SDS011;54162;54.300;18.592;2022-08-01T08:24:07;5.27;;;2.20;;
67248;SDS011;54162;54.300;18.592;2022-08-01T08:26:45;6.57;;;2.20;;
67248;SDS011;54162;54.300;18.592;2022-08-01T08:29:11;4.80;;;2.10;;
67248;SDS011;54162;54.300;18.592;2022-08-01T08:31:37;5.00;;;2.10;;
67248;SDS011;54162;54.300;18.592;2022-08-01T08:34:02;3.70;;;2.00;;
67248;SDS011;54162;54.300;18.592;2022-08-01T08:36:28;6.43;;;2.10;;
67248;SDS011;54162;54.300;18.592;2022-08-01T08:38:54;8.05;;;2.42;;
67248;SDS011;54162;54.300;18.592;2022-08-01T08:41:20;9.47;;;2.60;;
67248;SDS011;54162;54.300;18.592;2022-08-01T08:43:47;5.60;;;2.22;;
67248;SDS011;54162;54.300;18.592;2022-08-01T08:46:12;4.10;;;2.00;;
67248;SDS011;54162;54.300;18.592;2022-08-01T08:48:40;6.00;;;2.25;;
67248;SDS011;54162;54.300;18.592;2022-08-01T08:51:07;6.85;;;2.30;;
67248;SDS011;54162;54.300;18.592;2022-08-01T08:53:36;4.87;;;2.10;;
67248;SDS011;54162;54.300;18.592;2022-08-01T08:56:03;7.50;;;2.40;;
67248;SDS011;54162;54.300;18.592;2022-08-01T08:58:31;4.57;;;2.28;;
67248;SDS011;54162;54.300;18.592;2022-08-01T09:01:03;4.63;;;2.20;;
67248;SDS011;54162;54.300;18.592;2022-08-01T09:03:30;5.85;;;2.20;;
67248;SDS011;54162;54.300;18.592;2022-08-01T09:05:57;5.73;;;2.13;;
67248;SDS011;54162;54.300;18.592;2022-08-01T09:08:22;5.53;;;2.38;;
67248;SDS011;54162;54.300;18.592;2022-08-01T09:10:48;8.27;;;2.20;;
67248;SDS011;54162;54.300;18.592;2022-08-01T09:13:14;4.93;;;2.17;;
67248;SDS011;54162;54.300;18.592;2022-08-01T09:15:44;5.75;;;2.40;;
67248;SDS011;54162;54.300;18.592;2022-08-01T09:23:46;8.57;;;1.93;;
67248;SDS011;54162;54.300;18.592;2022-08-01T09:26:30;7.72;;;2.30;;
67248;SDS011;54162;54.300;18.592;2022-08-01T09:29:07;3.85;;;2.00;;
67248;SDS011;54162;54.300;18.592;2022-08-01T09:31:42;11.35;;;2.10;;
67248;SDS011;54162;54.300;18.592;2022-08-01T09:34:08;5.88;;;2.15;;
67248;SDS011;54162;54.300;18.592;2022-08-01T09:39:17;4.68;;;2.10;;
67248;SDS011;54162;54.300;18.592;2022-08-01T09:41:44;5.68;;;2.13;;
67248;SDS011;54162;54.300;18.592;2022-08-01T09:44:10;6.25;;;2.20;;
67248;SDS011;54162;54.300;18.592;2022-08-01T09:46:35;6.67;;;2.23;;
67248;SDS011;54162;54.300;18.592;2022-08-01T09:49:02;6.75;;;2.35;;
67248;SDS011;54162;54.300;18.592;2022-08-01T09:51:34;5.07;;;2.27;;
67248;SDS011;54162;54.300;18.592;2022-08-01T09:54:04;5.72;;;2.20;;
67248;SDS011;54162;54.300;18.592;2022-08-01T09:56:38;7.57;;;2.50;;
67248;SDS011;54162;54.300;18.592;2022-08-01T09:59:06;6.22;;;2.10;;
67248;SDS011;54162;54.300;18.592;2022-08-01T10:01:45;6.83;;;2.10;;
67248;SDS011;54162;54.300;18.592;2022-08-01T10:04:13;6.35;;;2.28;;
67248;SDS011;54162;54.300;18.592;2022-08-01T10:06:44;6.70;;;2.13;;
67248;SDS011;54162;54.300;18.592;2022-08-01T10:09:31;5.22;;;2.45;;
67248;SDS011;54162;54.300;18.592;2022-08-01T10:11:59;8.77;;;2.10;;
67248;SDS011;54162;54.300;18.592;2022-08-01T10:14:25;6.97;;;2.30;;
67248;SDS011;54162;54.300;18.592;2022-08-01T10:16:52;6.32;;;2.00;;
67248;SDS011;54162;54.300;18.592;2022-08-01T10:19:24;4.63;;;1.95;;
67248;SDS011;54162;54.300;18.592;2022-08-01T10:21:51;9.77;;;2.45;;
67248;SDS011;54162;54.300;18.592;2022-08-01T10:24:22;9.77;;;2.03;;
67248;SDS011;54162;54.300;18.592;2022-08-01T10:26:49;7.15;;;2.13;;
67248;SDS011;54162;54.300;18.592;2022-08-01T10:29:17;6.40;;;2.78;;
67248;SDS011;54162;54.300;18.592;2022-08-01T10:31:45;8.20;;;2.20;;
67248;SDS011;54162;54.300;18.592;2022-08-01T10:34:12;7.47;;;2.20;;
67248;SDS011;54162;54.300;18.592;2022-08-01T10:36:41;7.80;;;2.20;;
67248;SDS011;54162;54.300;18.592;2022-08-01T10:39:11;6.78;;;1.85;;
67248;SDS011;54162;54.300;18.592;2022-08-01T10:41:40;5.00;;;2.40;;
67248;SDS011;54162;54.300;18.592;2022-08-01T10:44:06;7.15;;;2.85;;
67248;SDS011;54162;54.300;18.592;2022-08-01T10:46:34;6.68;;;1.90;;
67248;SDS011;54162;54.300;18.592;2022-08-01T10:49:10;7.47;;;2.03;;
67248;SDS011;54162;54.300;18.592;2022-08-01T10:51:39;6.97;;;2.40;;
67248;SDS011;54162;54.300;18.592;2022-08-01T10:54:07;6.80;;;2.00;;
67248;SDS011;54162;54.300;18.592;2022-08-01T10:56:47;6.93;;;2.30;;
67248;SDS011;54162;54.300;18.592;2022-08-01T10:59:14;6.10;;;2.10;;
67248;SDS011;54162;54.300;18.592;2022-08-01T11:01:55;11.03;;;6.43;;
67248;SDS011;54162;54.300;18.592;2022-08-01T11:07:38;7.95;;;2.50;;
67248;SDS011;54162;54.300;18.592;2022-08-01T11:10:09;5.88;;;2.25;;
67248;SDS011;54162;54.300;18.592;2022-08-01T11:12:42;8.63;;;2.67;;
67248;SDS011;54162;54.300;18.592;2022-08-01T11:17:40;7.72;;;2.00;;
67248;SDS011;54162;54.300;18.592;2022-08-01T11:20:26;6.13;;;2.30;;
67248;SDS011;54162;54.300;18.592;2022-08-01T11:30:48;5.53;;;2.22;;
67248;SDS011;54162;54.300;18.592;2022-08-01T11:33:18;9.10;;;2.28;;
67248;SDS011;54162;54.300;18.592;2022-08-01T11:38:35;5.15;;;1.95;;
67248;SDS011;54162;54.300;18.592;2022-08-01T11:52:10;6.15;;;2.17;;
67248;SDS011;54162;54.300;18.592;2022-08-01T11:54:49;6.87;;;2.30;;
67248;SDS011;54162;54.300;18.592;2022-08-01T11:57:21;7.80;;;2.40;;
67248;SDS011;54162;54.300;18.592;2022-08-01T11:59:53;4.47;;;2.10;;
67248;SDS011;54162;54.300;18.592;2022-08-01T12:02:27;7.88;;;2.20;;
67248;SDS011;54162;54.300;18.592;2022-08-01T12:07:24;7.33;;;1.97;;
67248;SDS011;54162;54.300;18.592;2022-08-01T12:10:02;11.23;;;1.92;;
67248;SDS011;54162;54.300;18.592;2022-08-01T12:12:36;4.70;;;1.90;;
67248;SDS011;54162;54.300;18.592;2022-08-01T12:15:10;4.20;;;2.30;;
67248;SDS011;54162;54.300;18.592;2022-08-01T12:17:40;7.87;;;1.97;;
67248;SDS011;54162;54.300;18.592;2022-08-01T12:20:09;7.22;;;2.03;;
67248;SDS011;54162;54.300;18.592;2022-08-01T12:22:36;6.05;;;2.00;;
67248;SDS011;54162;54.300;18.592;2022-08-01T12:25:06;10.77;;;2.70;;
67248;SDS011;54162;54.300;18.592;2022-08-01T12:27:40;7.10;;;2.13;;
67248;SDS011;54162;54.300;18.592;2022-08-01T12:30:07;4.77;;;1.90;;
67248;SDS011;54162;54.300;18.592;2022-08-01T12:32:37;8.25;;;2.10;;
67248;SDS011;54162;54.300;18.592;2022-08-01T12:35:25;3.90;;;1.98;;
67248;SDS011;54162;54.300;18.592;2022-08-01T12:40:19;5.45;;;1.95;;
67248;SDS011;54162;54.300;18.592;2022-08-01T12:42:46;4.03;;;1.80;;
67248;SDS011;54162;54.300;18.592;2022-08-01T12:45:17;8.93;;;2.30;;
67248;SDS011;54162;54.300;18.592;2022-08-01T12:47:45;6.43;;;2.10;;
67248;SDS011;54162;54.300;18.592;2022-08-01T12:50:15;4.78;;;2.00;;
67248;SDS011;54162;54.300;18.592;2022-08-01T12:52:43;7.93;;;2.30;;
67248;SDS011;54162;54.300;18.592;2022-08-01T12:55:16;6.10;;;2.10;;
67248;SDS011;54162;54.300;18.592;2022-08-01T12:57:44;5.25;;;1.98;;
67248;SDS011;54162;54.300;18.592;2022-08-01T13:02:48;6.32;;;1.80;;
67248;SDS011;54162;54.300;18.592;2022-08-01T13:05:14;4.93;;;1.87;;
67248;SDS011;54162;54.300;18.592;2022-08-01T13:07:42;7.10;;;1.90;;
67248;SDS011;54162;54.300;18.592;2022-08-01T13:10:08;5.60;;;1.90;;
67248;SDS011;54162;54.300;18.592;2022-08-01T13:12:35;8.15;;;1.98;;
67248;SDS011;54162;54.300;18.592;2022-08-01T13:15:17;7.75;;;1.90;;
67248;SDS011;54162;54.300;18.592;2022-08-01T13:17:43;8.57;;;2.07;;
67248;SDS011;54162;54.300;18.592;2022-08-01T13:20:09;4.40;;;1.90;;
67248;SDS011;54162;54.300;18.592;2022-08-01T13:22:35;8.10;;;2.10;;
67248;SDS011;54162;54.300;18.592;2022-08-01T13:25:11;9.67;;;1.90;;
67248;SDS011;54162;54.300;18.592;2022-08-01T13:27:41;5.38;;;2.20;;
67248;SDS011;54162;54.300;18.592;2022-08-01T13:30:17;6.63;;;2.50;;
67248;SDS011;54162;54.300;18.592;2022-08-01T13:32:57;6.07;;;2.80;;
67248;SDS011;54162;54.300;18.592;2022-08-01T13:35:23;3.75;;;1.90;;
67248;SDS011;54162;54.300;18.592;2022-08-01T13:37:49;6.93;;;2.00;;
67248;SDS011;54162;54.300;18.592;2022-08-01T13:40:22;10.20;;;2.17;;
67248;SDS011;54162;54.300;18.592;2022-08-01T13:42:52;8.87;;;2.23;;
67248;SDS011;54162;54.300;18.592;2022-08-01T13:45:19;5.68;;;1.90;;
67248;SDS011;54162;54.300;18.592;2022-08-01T13:47:45;5.60;;;2.00;;
67248;SDS011;54162;54.300;18.592;2022-08-01T13:50:10;7.07;;;2.10;;
67248;SDS011;54162;54.300;18.592;2022-08-01T13:52:36;8.17;;;2.00;;
67248;SDS011;54162;54.300;18.592;2022-08-01T13:55:01;3.80;;;1.73;;
67248;SDS011;54162;54.300;18.592;2022-08-01T13:57:28;8.17;;;1.83;;
67248;SDS011;54162;54.300;18.592;2022-08-01T13:59:53;4.90;;;1.80;;
67248;SDS011;54162;54.300;18.592;2022-08-01T14:02:19;6.93;;;1.70;;
67248;SDS011;54162;54.300;18.592;2022-08-01T14:04:45;6.97;;;2.00;;
67248;SDS011;54162;54.300;18.592;2022-08-01T14:07:10;7.43;;;2.13;;
67248;SDS011;54162;54.300;18.592;2022-08-01T14:09:36;5.35;;;1.90;;
67248;SDS011;54162;54.300;18.592;2022-08-01T14:12:01;6.33;;;1.93;;
67248;SDS011;54162;54.300;18.592;2022-08-01T14:14:27;5.40;;;1.90;;
67248;SDS011;54162;54.300;18.592;2022-08-01T14:16:53;7.87;;;1.80;;
67248;SDS011;54162;54.300;18.592;2022-08-01T14:19:18;5.87;;;2.03;;
67248;SDS011;54162;54.300;18.592;2022-08-01T14:21:44;7.60;;;1.88;;
67248;SDS011;54162;54.300;18.592;2022-08-01T14:24:09;5.33;;;2.10;;
67248;SDS011;54162;54.300;18.592;2022-08-01T14:26:35;8.37;;;1.70;;
67248;SDS011;54162;54.300;18.592;2022-08-01T14:29:00;5.72;;;1.80;;
67248;SDS011;54162;54.300;18.592;2022-08-01T14:31:26;7.13;;;2.00;;
67248;SDS011;54162;54.300;18.592;2022-08-01T14:33:52;8.45;;;2.08;;
67248;SDS011;54162;54.300;18.592;2022-08-01T14:36:17;6.93;;;2.00;;
67248;SDS011;54162;54.300;18.592;2022-08-01T14:38:43;6.43;;;2.23;;
67248;SDS011;54162;54.300;18.592;2022-08-01T14:41:08;7.13;;;1.97;;
67248;SDS011;54162;54.300;18.592;2022-08-01T14:43:34;7.88;;;2.20;;
67248;SDS011;54162;54.300;18.592;2022-08-01T14:46:02;6.87;;;1.93;;
67248;SDS011;54162;54.300;18.592;2022-08-01T14:48:29;6.47;;;1.80;;
67248;SDS011;54162;54.300;18.592;2022-08-01T14:50:54;6.23;;;2.20;;
67248;SDS011;54162;54.300;18.592;2022-08-01T14:53:20;7.33;;;2.03;;
67248;SDS011;54162;54.300;18.592;2022-08-01T14:55:45;9.30;;;2.25;;
67248;SDS011;54162;54.300;18.592;2022-08-01T14:58:11;7.53;;;1.90;;
67248;SDS011;54162;54.300;18.592;2022-08-01T15:00:36;7.50;;;2.00;;
67248;SDS011;54162;54.300;18.592;2022-08-01T15:03:02;4.20;;;1.90;;
67248;SDS011;54162;54.300;18.592;2022-08-01T15:05:28;7.47;;;2.10;;
67248;SDS011;54162;54.300;18.592;2022-08-01T15:07:54;8.20;;;2.30;;
67248;SDS011;54162;54.300;18.592;2022-08-01T15:10:19;12.70;;;2.47;;
67248;SDS011;54162;54.300;18.592;2022-08-01T15:12:46;8.98;;;2.22;;
67248;SDS011;54162;54.300;18.592;2022-08-01T15:15:11;8.63;;;2.88;;
67248;SDS011;54162;54.300;18.592;2022-08-01T15:17:37;8.10;;;2.00;;
67248;SDS011;54162;54.300;18.592;2022-08-01T15:20:04;4.40;;;2.10;;
67248;SDS011;54162;54.300;18.592;2022-08-01T15:22:31;6.25;;;1.90;;
67248;SDS011;54162;54.300;18.592;2022-08-01T15:24:57;7.18;;;2.10;;
67248;SDS011;54162;54.300;18.592;2022-08-01T15:27:24;5.72;;;1.95;;
67248;SDS011;54162;54.300;18.592;2022-08-01T15:29:50;6.17;;;2.10;;
67248;SDS011;54162;54.300;18.592;2022-08-01T15:32:16;5.25;;;1.95;;
67248;SDS011;54162;54.300;18.592;2022-08-01T15:34:42;5.13;;;1.80;;